Time;durP1;ratioP1;P1;durP2;ratioP2;P2;SDS_P1;SDS_P2;PMS_P1;PMS_P2;Temp;Humidity;BMP_temperature;BMP_pressure;BME280_temperature;BME280_humidity;BME280_pressure;Samples;Min_cycle;Max_cycle;Signal;HPM_P1;HPM_P2
2021/10/14 00:01:23;;;;;;;9.50;2.72;;;;;;;9.25;100.00;101439.19;5015803;28;20157;-81
2021/10/14 00:03:51;;;;;;;9.38;3.53;;;;;;;9.17;100.00;101441.28;4991904;28;20401;-79
2021/10/14 00:06:19;;;;;;;9.23;3.00;;;;;;;9.17;100.00;101436.03;4995704;28;20095;-81
2021/10/14 00:08:46;;;;;;;7.97;3.33;;;;;;;9.21;100.00;101432.34;5009691;28;20041;-82
2021/10/14 00:11:13;;;;;;;11.55;3.35;;;;;;;9.21;100.00;101435.84;5010906;28;20118;-82
2021/10/14 00:13:40;;;;;;;8.90;3.50;;;;;;;9.35;100.00;101437.91;5012286;28;20377;-80
2021/10/14 00:16:08;;;;;;;6.20;2.90;;;;;;;9.30;100.00;101431.97;5016169;28;20124;-82
2021/10/14 00:18:35;;;;;;;10.82;3.88;;;;;;;9.11;100.00;101437.97;5012877;28;20583;-81
2021/10/14 00:21:02;;;;;;;8.20;3.10;;;;;;;9.10;100.00;101435.44;5002839;28;20512;-80
2021/10/14 00:23:30;;;;;;;10.98;2.90;;;;;;;9.18;100.00;101433.31;4996860;28;20104;-85
2021/10/14 00:25:57;;;;;;;7.00;3.30;;;;;;;9.12;100.00;101439.69;5003641;28;20092;-86
2021/10/14 00:28:24;;;;;;;11.18;3.22;;;;;;;9.19;100.00;101428.94;5027530;28;20107;-80
2021/10/14 00:30:51;;;;;;;7.22;3.03;;;;;;;9.26;100.00;101433.03;5020225;28;20099;-85
2021/10/14 00:33:18;;;;;;;7.82;3.10;;;;;;;9.22;100.00;101428.81;5002261;28;20092;-83
2021/10/14 00:35:46;;;;;;;8.80;2.85;;;;;;;9.22;100.00;101437.53;4995081;28;20555;-81
2021/10/14 00:38:13;;;;;;;8.35;3.05;;;;;;;9.24;100.00;101432.25;5012131;28;20072;-84
2021/10/14 00:40:40;;;;;;;5.97;2.97;;;;;;;9.15;100.00;101430.00;5005813;28;20048;-81
2021/10/14 00:43:08;;;;;;;12.73;3.58;;;;;;;9.24;100.00;101430.47;5014046;28;20193;-83
2021/10/14 00:45:36;;;;;;;6.95;3.63;;;;;;;9.20;100.00;101428.03;5011017;28;20520;-84
2021/10/14 00:48:03;;;;;;;10.23;3.58;;;;;;;9.25;100.00;101421.66;5013286;28;20145;-87
2021/10/14 00:50:30;;;;;;;10.25;3.67;;;;;;;9.36;100.00;101423.84;5027226;28;20064;-81
2021/10/14 00:52:57;;;;;;;6.28;3.53;;;;;;;9.24;100.00;101427.00;5030258;28;20524;-81
2021/10/14 00:55:25;;;;;;;19.42;4.85;;;;;;;9.27;100.00;101425.06;5009037;28;20447;-81
2021/10/14 00:57:52;;;;;;;7.82;3.53;;;;;;;9.27;100.00;101435.56;4997396;28;20081;-81
2021/10/14 01:00:19;;;;;;;16.25;4.95;;;;;;;9.24;100.00;101424.38;5008984;28;20376;-80
2021/10/14 01:02:46;;;;;;;8.23;3.58;;;;;;;9.12;100.00;101428.31;5014335;28;20037;-83
2021/10/14 01:05:14;;;;;;;14.15;3.75;;;;;;;9.22;100.00;101431.44;5017183;28;20053;-81
2021/10/14 01:07:41;;;;;;;10.90;3.70;;;;;;;9.22;100.00;101428.81;5007394;28;20128;-82
2021/10/14 01:10:09;;;;;;;14.35;3.85;;;;;;;9.37;100.00;101422.94;4997568;28;20500;-83
2021/10/14 01:12:37;;;;;;;6.78;3.85;;;;;;;9.33;100.00;101423.97;5027842;28;20060;-85
2021/10/14 01:15:24;;;;;;;11.23;3.53;;;;;;;9.27;100.00;101418.97;4990783;28;20449;-84
2021/10/14 01:17:51;;;;;;;8.60;3.53;;;;;;;9.16;100.00;101416.78;5013891;28;20064;-83
2021/10/14 01:20:18;;;;;;;8.32;4.05;;;;;;;9.18;100.00;101412.31;4974834;28;20127;-82
2021/10/14 01:22:45;;;;;;;9.80;4.10;;;;;;;9.27;100.00;101409.31;4996863;28;20069;-79
2021/10/14 01:25:13;;;;;;;9.57;4.15;;;;;;;9.23;100.00;101415.63;5000152;28;20168;-84
2021/10/14 01:27:41;;;;;;;8.43;3.90;;;;;;;9.15;100.00;101406.34;5013356;28;20064;-82
2021/10/14 01:30:09;;;;;;;11.10;3.65;;;;;;;9.23;100.00;101407.75;5008022;28;20208;-80
2021/10/14 01:32:36;;;;;;;8.85;3.92;;;;;;;9.33;100.00;101405.59;5001817;28;20055;-79
2021/10/14 01:35:04;;;;;;;10.45;3.90;;;;;;;9.29;100.00;101398.75;5010962;28;20492;-80
2021/10/14 01:37:32;;;;;;;11.90;4.30;;;;;;;9.30;100.00;101395.19;5013181;28;20126;-84
2021/10/14 01:40:00;;;;;;;13.27;4.65;;;;;;;9.25;100.00;101390.13;4992303;28;20353;-79
2021/10/14 01:42:27;;;;;;;7.60;4.25;;;;;;;9.26;100.00;101385.72;4996859;28;20443;-81
2021/10/14 01:44:54;;;;;;;5.28;3.67;;;;;;;9.16;100.00;101385.25;5016031;28;20560;-86
2021/10/14 01:47:21;;;;;;;15.88;4.57;;;;;;;9.19;100.00;101386.91;5007887;28;20084;-79
2021/10/14 01:49:48;;;;;;;10.15;3.92;;;;;;;9.31;100.00;101386.38;5008291;28;20049;-81
2021/10/14 01:52:15;;;;;;;7.93;3.55;;;;;;;9.28;100.00;101379.50;5006041;28;20045;-82
2021/10/14 01:54:43;;;;;;;8.43;4.68;;;;;;;9.18;100.00;101372.91;5007205;28;20045;-83
2021/10/14 01:57:10;;;;;;;9.70;4.25;;;;;;;9.31;100.00;101373.25;5015570;28;20128;-78
2021/10/14 01:59:37;;;;;;;6.53;4.13;;;;;;;9.33;100.00;101360.91;5007556;28;20037;-81
2021/10/14 02:02:04;;;;;;;13.57;4.53;;;;;;;9.34;100.00;101365.25;5029833;28;20141;-81
2021/10/14 02:04:56;;;;;;;10.40;4.57;;;;;;;9.21;100.00;101369.31;5002610;28;20128;-82
2021/10/14 02:07:24;;;;;;;12.43;4.90;;;;;;;9.33;100.00;101359.16;5004941;28;20053;-82
2021/10/14 02:09:51;;;;;;;10.00;4.57;;;;;;;9.33;100.00;101371.44;5023059;28;20060;-79
2021/10/14 02:12:18;;;;;;;9.75;5.18;;;;;;;9.26;100.00;101362.09;5011629;28;20057;-79
2021/10/14 02:14:45;;;;;;;12.40;4.97;;;;;;;9.26;100.00;101356.81;5009512;28;20056;-78
2021/10/14 02:17:12;;;;;;;10.05;5.18;;;;;;;9.29;100.00;101361.97;5011260;28;20153;-80
2021/10/14 02:19:39;;;;;;;13.05;5.18;;;;;;;9.21;100.00;101353.53;5007469;28;20452;-83
2021/10/14 02:22:08;;;;;;;9.35;5.00;;;;;;;9.29;100.00;101351.47;5012465;28;20096;-82
2021/10/14 02:25:00;;;;;;;13.68;6.07;;;;;;;9.42;100.00;101355.28;5008351;28;20081;-80
2021/10/14 02:27:28;;;;;;;11.38;5.80;;;;;;;9.15;100.00;101348.56;4991169;28;20052;-82
2021/10/14 02:29:55;;;;;;;15.90;6.93;;;;;;;9.12;100.00;101352.16;4992113;28;20508;-81
2021/10/14 02:32:22;;;;;;;13.48;5.75;;;;;;;9.03;100.00;101352.53;5026358;28;20050;-80
2021/10/14 02:34:49;;;;;;;8.38;5.68;;;;;;;9.24;100.00;101348.16;4988750;28;20041;-81
2021/10/14 02:37:16;;;;;;;15.82;6.20;;;;;;;9.08;100.00;101355.81;5011374;28;20533;-83
2021/10/14 02:39:43;;;;;;;11.98;6.22;;;;;;;8.98;100.00;101352.72;5025664;28;20220;-80
2021/10/14 02:42:11;;;;;;;15.18;6.60;;;;;;;9.02;100.00;101359.56;5029320;28;20104;-81
2021/10/14 02:44:38;;;;;;;11.48;7.10;;;;;;;9.12;100.00;101345.13;5023594;28;20522;-83
2021/10/14 02:47:05;;;;;;;10.77;6.50;;;;;;;9.28;100.00;101347.13;5009624;28;20096;-81
2021/10/14 02:49:32;;;;;;;10.82;5.97;;;;;;;9.18;100.00;101343.16;5024478;28;20524;-80
2021/10/14 02:51:59;;;;;;;12.50;5.85;;;;;;;9.17;100.00;101349.34;5014796;28;20037;-84
2021/10/14 02:54:27;;;;;;;12.98;5.90;;;;;;;9.18;100.00;101335.28;5003795;28;20703;-79
2021/10/14 02:56:54;;;;;;;9.32;5.75;;;;;;;9.20;100.00;101341.34;4990652;28;20052;-83
2021/10/14 02:59:21;;;;;;;11.57;6.03;;;;;;;9.17;100.00;101331.78;4998874;28;20958;-83
2021/10/14 03:01:48;;;;;;;16.58;6.93;;;;;;;9.10;100.00;101330.34;5011419;28;20445;-82
2021/10/14 03:04:16;;;;;;;8.82;5.00;;;;;;;9.15;100.00;101322.28;4992744;28;20045;-82
2021/10/14 03:06:43;;;;;;;11.32;5.40;;;;;;;9.21;100.00;101325.50;4999627;28;20140;-78
2021/10/14 03:09:11;;;;;;;8.27;4.88;;;;;;;9.20;100.00;101320.31;5007237;28;20457;-86
2021/10/14 03:11:38;;;;;;;10.05;4.60;;;;;;;9.44;100.00;101319.25;5009792;28;20456;-80
2021/10/14 03:14:05;;;;;;;11.45;4.55;;;;;;;9.45;100.00;101320.97;5007419;28;20068;-82
2021/10/14 03:16:32;;;;;;;10.90;4.57;;;;;;;9.36;100.00;101316.09;4978784;28;20133;-83
2021/10/14 03:19:00;;;;;;;7.10;3.10;;;;;;;9.19;100.00;101316.84;4987697;28;20281;-80
2021/10/14 03:21:27;;;;;;;7.32;2.72;;;;;;;9.19;100.00;101311.59;4991733;28;20112;-79
2021/10/14 03:23:54;;;;;;;4.13;2.42;;;;;;;9.18;100.00;101315.09;4998012;28;20088;-85
2021/10/14 03:26:21;;;;;;;7.53;2.97;;;;;;;9.22;100.00;101306.19;5021016;28;20424;-82
2021/10/14 03:28:50;;;;;;;7.95;2.90;;;;;;;9.14;100.00;101308.31;4992280;28;20509;-84
2021/10/14 03:31:17;;;;;;;6.95;2.53;;;;;;;9.09;100.00;101308.47;5009445;28;20045;-82
2021/10/14 03:33:44;;;;;;;6.10;2.45;;;;;;;9.11;100.00;101306.66;5006977;28;20128;-80
2021/10/14 03:36:11;;;;;;;5.90;2.58;;;;;;;9.22;100.00;101308.81;5018780;28;20136;-78
2021/10/14 03:38:39;;;;;;;9.85;3.08;;;;;;;9.19;100.00;101303.69;5012600;28;20085;-81
2021/10/14 03:41:06;;;;;;;5.00;2.22;;;;;;;9.02;100.00;101306.19;5015319;28;20124;-80
2021/10/14 03:43:33;;;;;;;8.70;3.40;;;;;;;9.08;100.00;101300.66;5020938;28;20140;-82
2021/10/14 03:46:00;;;;;;;4.72;3.17;;;;;;;8.93;100.00;101309.19;5000209;28;20073;-79
2021/10/14 03:48:27;;;;;;;5.72;3.40;;;;;;;8.84;100.00;101308.63;5030942;28;20058;-79
2021/10/14 03:50:55;;;;;;;6.43;3.58;;;;;;;8.88;100.00;101306.75;5014827;28;20080;-83
2021/10/14 03:53:22;;;;;;;7.65;4.20;;;;;;;8.96;100.00;101303.78;5011620;28;20089;-82
2021/10/14 03:55:49;;;;;;;7.00;4.50;;;;;;;8.78;100.00;101302.75;5017439;28;20089;-83
2021/10/14 03:58:16;;;;;;;10.05;4.60;;;;;;;8.79;100.00;101302.72;5030286;28;20056;-83
2021/10/14 04:00:43;;;;;;;11.90;4.97;;;;;;;8.78;100.00;101302.75;4999694;28;20492;-80
2021/10/14 04:03:10;;;;;;;9.88;5.50;;;;;;;8.80;100.00;101298.31;5013977;28;20049;-84
2021/10/14 04:05:38;;;;;;;12.23;5.18;;;;;;;8.74;100.00;101293.34;4989514;28;20050;-81
2021/10/14 04:08:05;;;;;;;10.38;4.93;;;;;;;8.79;100.00;101300.09;5012366;28;20049;-81
2021/10/14 04:10:32;;;;;;;8.52;4.85;;;;;;;8.79;100.00;101296.63;5011193;28;20049;-80
2021/10/14 04:13:00;;;;;;;8.38;4.40;;;;;;;8.82;100.00;101297.31;4994853;28;20053;-84
2021/10/14 04:15:27;;;;;;;6.80;4.35;;;;;;;8.78;100.00;101293.16;5000073;28;20140;-81
2021/10/14 04:17:54;;;;;;;8.50;4.80;;;;;;;8.80;100.00;101296.56;4993145;28;20042;-81
2021/10/14 04:20:21;;;;;;;9.02;5.05;;;;;;;8.87;100.00;101290.16;5009649;28;20050;-77
2021/10/14 04:22:48;;;;;;;7.95;5.28;;;;;;;8.80;100.00;101291.31;5011942;28;20060;-84
2021/10/14 04:25:16;;;;;;;7.80;5.07;;;;;;;8.77;100.00;101286.16;5008585;28;20056;-79
2021/10/14 04:27:43;;;;;;;6.78;4.80;;;;;;;8.87;100.00;101284.00;5030896;28;20077;-88
2021/10/14 04:30:10;;;;;;;7.60;5.50;;;;;;;8.75;100.00;101288.00;5012276;28;20045;-85
2021/10/14 04:32:37;;;;;;;8.05;5.10;;;;;;;8.78;100.00;101287.00;5024478;28;20053;-80
2021/10/14 04:35:05;;;;;;;9.13;5.82;;;;;;;8.63;100.00;101291.97;4994215;28;20480;-81
2021/10/14 04:37:32;;;;;;;10.00;6.13;;;;;;;8.74;100.00;101290.72;5014745;28;20073;-79
2021/10/14 04:39:59;;;;;;;12.50;6.88;;;;;;;8.71;100.00;101296.06;4993632;28;20583;-79
2021/10/14 04:42:26;;;;;;;11.13;7.30;;;;;;;8.66;100.00;101292.78;4993927;28;20236;-84
2021/10/14 04:44:53;;;;;;;11.52;7.18;;;;;;;8.68;100.00;101286.53;5009601;28;20067;-81
2021/10/14 04:47:20;;;;;;;10.60;6.80;;;;;;;8.63;100.00;101288.50;4993127;28;20049;-82
2021/10/14 04:49:48;;;;;;;8.38;6.47;;;;;;;8.57;100.00;101280.88;5006711;28;20052;-82
2021/10/14 04:52:15;;;;;;;10.90;7.53;;;;;;;8.70;100.00;101281.25;4999840;28;20056;-86
2021/10/14 04:54:42;;;;;;;8.00;6.40;;;;;;;8.66;100.00;101282.28;4991413;28;20084;-78
2021/10/14 04:57:09;;;;;;;9.27;6.22;;;;;;;8.74;100.00;101283.69;5031506;28;20046;-80
2021/10/14 04:59:37;;;;;;;9.25;6.32;;;;;;;8.74;100.00;101275.81;5026173;28;20429;-82
2021/10/14 05:02:04;;;;;;;7.43;6.50;;;;;;;8.78;100.00;101276.50;5014012;28;20223;-80
2021/10/14 05:04:31;;;;;;;8.82;6.45;;;;;;;8.77;100.00;101280.06;4992748;28;20072;-80
2021/10/14 05:06:58;;;;;;;7.13;6.28;;;;;;;8.74;100.00;101275.81;4999202;28;20140;-78
2021/10/14 05:09:28;;;;;;;7.80;5.50;;;;;;;8.79;100.00;101278.25;5012634;28;20255;-78
2021/10/14 05:12:08;;;;;;;5.82;5.25;;;;;;;8.79;100.00;101279.09;5003491;28;20037;-83
2021/10/14 05:14:37;;;;;;;5.70;5.10;;;;;;;8.73;100.00;101274.06;4994413;28;20521;-78
2021/10/14 05:17:04;;;;;;;6.10;5.50;;;;;;;8.82;100.00;101278.94;5019252;28;20082;-80
2021/10/14 05:19:31;;;;;;;6.63;6.03;;;;;;;8.80;100.00;101269.44;5030075;28;20084;-81
2021/10/14 05:21:58;;;;;;;6.82;5.47;;;;;;;8.76;100.00;101276.59;5001051;28;20521;-83
2021/10/14 05:24:25;;;;;;;6.97;5.93;;;;;;;8.73;100.00;101275.84;5008576;28;20111;-81
2021/10/14 05:26:53;;;;;;;6.93;5.93;;;;;;;8.83;100.00;101270.19;4996216;28;20057;-85
2021/10/14 05:29:20;;;;;;;6.15;5.00;;;;;;;8.79;100.00;101273.00;5025500;28;20468;-81
2021/10/14 05:31:47;;;;;;;6.45;5.85;;;;;;;8.71;100.00;101275.94;5016125;28;20049;-85
2021/10/14 05:34:14;;;;;;;5.80;5.22;;;;;;;8.73;100.00;101273.22;4999497;28;20061;-82
2021/10/14 05:36:42;;;;;;;11.23;6.53;;;;;;;8.70;100.00;101274.22;4995726;28;20037;-79
2021/10/14 05:39:09;;;;;;;7.82;6.07;;;;;;;8.74;100.00;101277.59;4992810;28;20081;-82
2021/10/14 05:41:36;;;;;;;10.57;6.35;;;;;;;8.76;100.00;101271.34;5017429;28;20045;-82
2021/10/14 05:44:03;;;;;;;6.20;5.60;;;;;;;8.72;100.00;101277.63;4994084;28;20104;-84
2021/10/14 05:46:30;;;;;;;7.38;5.70;;;;;;;8.82;100.00;101275.47;4978165;28;20124;-79
2021/10/14 05:48:57;;;;;;;5.20;4.70;;;;;;;8.90;100.00;101280.41;5025805;28;20530;-85
2021/10/14 05:51:25;;;;;;;5.65;5.13;;;;;;;8.91;100.00;101272.47;4995231;28;20548;-80
2021/10/14 05:53:52;;;;;;;5.60;4.90;;;;;;;8.77;100.00;101278.28;5002376;28;20411;-82
2021/10/14 05:56:19;;;;;;;5.90;5.30;;;;;;;8.95;100.00;101278.44;5028992;28;20041;-76
2021/10/14 05:58:46;;;;;;;5.85;5.35;;;;;;;8.82;100.00;101280.72;5050371;28;20037;-81
2021/10/14 06:01:13;;;;;;;5.07;4.57;;;;;;;8.93;100.00;101285.56;4985606;28;20063;-79
2021/10/14 06:03:41;;;;;;;6.82;6.07;;;;;;;8.73;100.00;101291.59;5008646;28;20065;-82
2021/10/14 06:06:08;;;;;;;6.10;5.50;;;;;;;8.84;100.00;101285.00;5026680;28;20052;-80
2021/10/14 06:08:35;;;;;;;6.55;4.70;;;;;;;8.84;100.00;101294.66;4999083;28;20151;-85
2021/10/14 06:11:02;;;;;;;6.13;5.53;;;;;;;8.83;100.00;101279.84;5008784;28;20053;-81
2021/10/14 06:13:29;;;;;;;5.38;4.88;;;;;;;8.94;100.00;101282.00;5025319;28;20092;-87
2021/10/14 06:15:57;;;;;;;5.72;4.57;;;;;;;9.07;100.00;101286.69;5001141;28;20408;-83
2021/10/14 06:18:24;;;;;;;5.05;4.30;;;;;;;9.27;100.00;101284.97;4994707;28;20345;-79
2021/10/14 06:20:51;;;;;;;6.20;4.45;;;;;;;9.22;100.00;101282.53;4997761;28;20057;-78
2021/10/14 06:23:21;;;;;;;7.13;4.43;;;;;;;9.22;100.00;101282.53;5005933;28;20507;-79
2021/10/14 06:25:48;;;;;;;4.72;4.28;;;;;;;9.26;100.00;101285.91;5009421;28;20048;-80
2021/10/14 06:28:15;;;;;;;5.38;4.25;;;;;;;9.23;100.00;101288.63;5011219;28;20129;-85
2021/10/14 06:30:42;;;;;;;6.05;4.75;;;;;;;9.09;100.00;101287.44;5027283;28;20045;-80
2021/10/14 06:33:09;;;;;;;5.75;4.35;;;;;;;9.15;100.00;101285.50;4981921;28;20473;-85
2021/10/14 06:35:38;;;;;;;8.65;5.55;;;;;;;9.20;100.00;101284.38;5001909;28;20075;-87
2021/10/14 06:38:06;;;;;;;7.18;5.22;;;;;;;9.28;100.00;101284.91;4995635;28;20105;-84
2021/10/14 06:40:34;;;;;;;7.32;5.82;;;;;;;9.29;100.00;101283.16;5014379;28;20508;-79
2021/10/14 06:43:01;;;;;;;7.18;5.50;;;;;;;9.45;100.00;101285.94;4995120;28;20053;-88
2021/10/14 06:45:28;;;;;;;6.53;5.57;;;;;;;9.48;100.00;101283.19;4975043;28;20056;-81
2021/10/14 06:47:56;;;;;;;5.93;5.25;;;;;;;9.50;100.00;101284.84;5027851;28;20103;-79
2021/10/14 06:50:23;;;;;;;5.82;5.22;;;;;;;9.53;100.00;101275.97;4991275;28;20129;-79
2021/10/14 06:52:50;;;;;;;7.25;4.90;;;;;;;9.63;100.00;101285.97;5016788;28;20606;-81
2021/10/14 06:55:18;;;;;;;7.05;4.90;;;;;;;9.59;100.00;101286.19;4989301;28;20046;-77
2021/10/14 06:57:45;;;;;;;7.18;5.35;;;;;;;9.66;100.00;101282.38;5005341;28;20041;-83
2021/10/14 07:00:12;;;;;;;8.32;5.75;;;;;;;9.76;100.00;101286.28;5008810;28;20057;-84
2021/10/14 07:02:39;;;;;;;6.47;5.40;;;;;;;9.88;100.00;101284.91;5005074;28;20068;-79
2021/10/14 07:05:07;;;;;;;7.22;4.88;;;;;;;9.89;100.00;101282.19;5026180;28;20069;-82
2021/10/14 07:07:34;;;;;;;6.00;5.10;;;;;;;9.89;100.00;101284.81;5012866;28;20140;-78
2021/10/14 07:10:02;;;;;;;8.23;5.53;;;;;;;9.89;100.00;101276.94;5008758;28;20148;-81
2021/10/14 07:12:30;;;;;;;11.52;6.05;;;;;;;9.85;100.00;101274.50;5011521;28;20045;-81
2021/10/14 07:14:57;;;;;;;7.93;5.97;;;;;;;9.93;100.00;101271.53;4972181;28;20057;-85
2021/10/14 07:17:25;;;;;;;8.18;5.97;;;;;;;9.96;100.00;101271.41;4997147;28;20064;-78
2021/10/14 07:19:53;;;;;;;7.38;6.32;;;;;;;10.01;100.00;101272.03;4989631;28;20049;-77
2021/10/14 07:22:20;;;;;;;7.38;6.68;;;;;;;9.94;100.00;101270.59;4973183;28;20378;-82
2021/10/14 07:24:47;;;;;;;6.38;5.82;;;;;;;9.95;100.00;101270.56;4988789;28;20072;-82
2021/10/14 07:27:15;;;;;;;9.02;6.60;;;;;;;10.08;100.00;101269.03;4994897;28;20054;-77
2021/10/14 07:29:42;;;;;;;7.03;6.43;;;;;;;10.27;100.00;101271.72;4989015;28;20085;-78
2021/10/14 07:32:09;;;;;;;9.30;6.55;;;;;;;10.16;100.00;101260.78;5009730;28;20277;-77
2021/10/14 07:34:38;;;;;;;8.18;6.53;;;;;;;10.28;100.00;101273.41;5009434;28;20456;-85
2021/10/14 07:37:06;;;;;;;10.85;5.97;;;;;;;10.27;100.00;101266.44;4994349;28;20456;-86
2021/10/14 07:39:33;;;;;;;9.30;6.65;;;;;;;10.46;100.00;101271.69;5002134;28;20121;-86
2021/10/14 07:42:01;;;;;;;11.30;8.15;;;;;;;10.46;100.00;101270.84;4981189;28;20077;-85
2021/10/14 07:44:28;;;;;;;11.75;7.07;;;;;;;10.58;100.00;101267.59;5009071;28;20165;-86
2021/10/14 07:46:55;;;;;;;8.00;6.93;;;;;;;10.72;100.00;101264.31;4996020;28;20080;-89
2021/10/14 07:49:22;;;;;;;8.80;6.90;;;;;;;10.87;100.00;101245.94;5006327;28;20104;-86
2021/10/14 07:51:50;;;;;;;11.23;7.53;;;;;;;11.03;100.00;101238.13;4976121;28;20124;-89
2021/10/14 07:54:17;;;;;;;7.78;6.90;;;;;;;11.10;100.00;101233.38;5010601;28;20566;-82
2021/10/14 07:56:44;;;;;;;7.90;7.13;;;;;;;11.19;100.00;101246.09;4991458;28;20076;-88
2021/10/14 07:59:11;;;;;;;10.57;8.32;;;;;;;10.82;100.00;101242.69;4990976;28;20493;-87
2021/10/14 08:01:39;;;;;;;12.43;8.65;;;;;;;10.80;100.00;101251.59;5010283;28;20401;-87
2021/10/14 08:04:08;;;;;;;11.10;8.30;;;;;;;10.76;100.00;101265.84;4973216;28;20138;-85
2021/10/14 08:06:36;;;;;;;12.07;6.90;;;;;;;10.71;100.00;101273.97;4978934;28;20107;-87
2021/10/14 08:09:03;;;;;;;10.50;7.28;;;;;;;10.98;100.00;101277.00;4997537;28;20085;-87
2021/10/14 08:11:30;;;;;;;8.48;7.50;;;;;;;11.04;100.00;101286.41;4975088;28;20091;-87
2021/10/14 08:13:58;;;;;;;10.88;7.97;;;;;;;10.94;100.00;101288.63;4977351;28;20089;-86
2021/10/14 08:16:25;;;;;;;10.27;8.15;;;;;;;11.13;100.00;101284.16;4992787;28;20145;-82
2021/10/14 08:18:53;;;;;;;12.98;8.75;;;;;;;11.20;100.00;101284.69;5015470;28;20144;-86
2021/10/14 08:21:20;;;;;;;10.65;8.38;;;;;;;11.12;100.00;101281.56;4972928;28;20060;-84
2021/10/14 08:23:47;;;;;;;9.80;8.07;;;;;;;11.12;100.00;101285.09;4994056;28;20029;-86
2021/10/14 08:26:14;;;;;;;10.57;8.30;;;;;;;11.18;100.00;101283.94;4981111;28;20505;-87
2021/10/14 08:28:42;;;;;;;9.80;8.23;;;;;;;11.25;100.00;101284.44;5015541;28;20045;-84
2021/10/14 08:31:09;;;;;;;11.00;9.75;;;;;;;11.38;100.00;101275.81;5003093;28;20080;-84
2021/10/14 08:33:36;;;;;;;11.63;9.52;;;;;;;11.21;100.00;101280.25;4989718;28;20132;-86
2021/10/14 08:36:04;;;;;;;12.10;9.02;;;;;;;11.38;100.00;101277.63;5014089;28;20057;-86
2021/10/14 08:38:32;;;;;;;13.52;9.95;;;;;;;11.41;100.00;101274.84;5016285;28;20049;-87
2021/10/14 08:40:59;;;;;;;14.82;9.52;;;;;;;11.26;100.00;101279.13;4997153;28;20072;-85
2021/10/14 08:43:27;;;;;;;13.02;9.85;;;;;;;11.33;100.00;101282.28;5003385;28;20144;-86
2021/10/14 08:45:55;;;;;;;14.50;9.40;;;;;;;11.38;100.00;101281.09;5001777;28;20076;-79
2021/10/14 08:48:23;;;;;;;11.20;9.57;;;;;;;11.34;100.00;101284.81;4980994;28;20141;-82
2021/10/14 08:50:50;;;;;;;14.57;10.88;;;;;;;11.14;100.00;101277.94;5013290;28;20072;-81
2021/10/14 08:53:18;;;;;;;14.27;9.95;;;;;;;11.18;100.00;101273.38;5030324;28;20136;-83
2021/10/14 08:55:45;;;;;;;13.80;9.10;;;;;;;11.50;100.00;101284.91;4994119;28;20304;-76
2021/10/14 08:58:13;;;;;;;10.13;8.13;;;;;;;11.74;100.00;101282.75;5031571;28;20113;-81
2021/10/14 09:01:02;;;;;;;14.32;9.88;;;;;;;11.51;100.00;101280.47;4995472;28;20057;-79
2021/10/14 09:03:30;;;;;;;13.88;8.35;;;;;;;11.73;100.00;101269.66;5011686;28;20049;-80
2021/10/14 09:05:58;;;;;;;12.45;9.70;;;;;;;11.81;100.00;101275.38;4994395;28;20150;-78
2021/10/14 09:08:35;;;;;;;11.88;9.73;;;;;;;11.80;100.00;101274.53;5003933;28;21249;-78
2021/10/14 09:11:12;;;;;;;12.02;8.48;;;;;;;11.79;100.00;101269.31;5031775;28;20121;-77
2021/10/14 09:13:49;;;;;;;8.90;7.53;;;;;;;12.00;100.00;101272.63;5008166;28;20049;-77
2021/10/14 09:16:24;;;;;;;9.98;8.25;;;;;;;11.90;100.00;101267.84;5032267;28;20107;-76
2021/10/14 09:18:52;;;;;;;;;;;;;;;12.00;100.00;101273.47;5032132;28;20145;-78
2021/10/14 09:21:29;;;;;;;12.32;7.80;;;;;;;12.01;100.00;101280.44;5011782;28;19932;-78
2021/10/14 09:23:58;;;;;;;11.65;8.70;;;;;;;12.01;100.00;101272.53;5004524;28;20116;-82
2021/10/14 09:26:30;;;;;;;10.95;8.07;;;;;;;11.88;100.00;101272.31;4997770;28;20061;-78
2021/10/14 09:29:09;;;;;;;12.50;8.13;;;;;;;11.80;100.00;101268.41;4994370;28;20133;-78
2021/10/14 09:31:54;;;;;;;15.20;8.63;;;;;;;11.74;100.00;101272.19;4990704;28;20567;-78
2021/10/14 09:34:32;;;;;;;10.35;7.97;;;;;;;11.79;100.00;101274.59;5013546;28;20570;-80
2021/10/14 09:37:01;;;;;;;11.48;9.07;;;;;;;11.82;100.00;101275.31;5033206;28;20141;-80
2021/10/14 09:39:29;;;;;;;13.02;9.93;;;;;;;11.72;100.00;101275.88;5018688;28;20069;-76
2021/10/14 09:41:58;;;;;;;18.63;10.00;;;;;;;11.64;100.00;101271.84;4979555;28;20546;-76
2021/10/14 09:44:49;;;;;;;11.68;9.60;;;;;;;11.90;100.00;101265.19;5012956;28;20051;-77
2021/10/14 09:47:17;;;;;;;11.82;9.70;;;;;;;11.91;100.00;101273.97;4998297;28;20685;-77
2021/10/14 09:49:44;;;;;;;10.40;8.77;;;;;;;11.89;100.00;101276.69;4992526;28;20423;-76
2021/10/14 09:52:12;;;;;;;9.02;8.10;;;;;;;11.66;100.00;101275.25;5030735;28;20451;-81
2021/10/14 09:54:39;;;;;;;10.27;7.78;;;;;;;11.87;100.00;101275.91;4992184;28;20049;-85
2021/10/14 09:57:06;;;;;;;12.50;8.48;;;;;;;12.05;100.00;101271.41;5013740;28;20132;-85
2021/10/14 09:59:33;;;;;;;10.38;8.48;;;;;;;12.13;100.00;101277.13;5009978;28;20055;-85
2021/10/14 10:02:03;;;;;;;11.07;8.75;;;;;;;12.01;100.00;101274.31;4998038;28;20140;-85
2021/10/14 10:04:31;;;;;;;10.70;7.57;;;;;;;12.24;100.00;101268.59;4976474;28;20092;-87
2021/10/14 10:07:01;;;;;;;10.50;8.00;;;;;;;12.26;100.00;101265.91;4997843;28;20149;-91
2021/10/14 10:09:38;;;;;;;13.18;7.28;;;;;;;12.32;100.00;101268.19;4989902;28;20510;-86
2021/10/14 10:12:05;;;;;;;7.35;6.65;;;;;;;12.31;100.00;101267.34;4999379;28;20100;-86
2021/10/14 10:14:32;;;;;;;8.68;7.30;;;;;;;12.22;100.00;101269.66;4993421;28;20045;-80
2021/10/14 10:17:06;;;;;;;21.42;7.90;;;;;;;12.25;100.00;101264.19;5016906;28;20041;-81
2021/10/14 10:19:49;;;;;;;11.75;7.35;;;;;;;12.36;100.00;101256.53;5015633;28;20076;-87
2021/10/14 10:22:35;;;;;;;7.57;5.38;;;;;;;12.52;100.00;101259.13;5001353;28;20141;-86
2021/10/14 10:25:24;;;;;;;11.23;7.72;;;;;;;12.49;100.00;101260.19;5014524;28;20052;-85
2021/10/14 10:27:53;;;;;;;10.52;5.90;;;;;;;12.57;100.00;101249.19;5022347;28;20065;-82
2021/10/14 10:30:36;;;;;;;5.68;4.60;;;;;;;12.76;100.00;101246.31;4966036;28;20041;-80
2021/10/14 10:33:06;;;;;;;5.10;4.35;;;;;;;12.83;100.00;101253.81;5032190;28;20140;-85
2021/10/14 10:35:40;;;;;;;6.18;5.03;;;;;;;12.92;100.00;101248.00;4993791;28;20060;-80
2021/10/14 10:38:18;;;;;;;5.38;4.50;;;;;;;12.85;100.00;101245.78;5008422;28;20041;-87
2021/10/14 10:40:49;;;;;;;6.82;4.53;;;;;;;12.83;100.00;101239.72;4991832;28;20045;-82
2021/10/14 10:43:18;;;;;;;5.13;4.60;;;;;;;12.58;100.00;101238.53;5030703;28;20045;-81
2021/10/14 10:45:52;;;;;;;5.97;4.22;;;;;;;12.35;100.00;101239.00;5031270;28;20037;-82
2021/10/14 10:48:34;;;;;;;4.13;3.72;;;;;;;12.27;100.00;101234.13;4995988;28;20419;-78
2021/10/14 10:51:02;;;;;;;6.47;3.65;;;;;;;12.42;100.00;101240.31;5021387;28;20064;-80
2021/10/14 10:53:44;;;;;;;4.13;3.47;;;;;;;12.49;100.00;101228.50;4996932;28;20137;-79
2021/10/14 10:56:38;;;;;;;4.78;3.17;;;;;;;12.47;100.00;101230.34;5012586;28;20137;-81
2021/10/14 10:59:06;;;;;;;6.40;4.05;;;;;;;12.51;100.00;101218.66;4992227;28;20042;-82
2021/10/14 11:01:34;;;;;;;5.18;3.65;;;;;;;12.66;100.00;101219.59;5015120;28;20168;-81
2021/10/14 11:04:05;;;;;;;4.93;3.65;;;;;;;12.68;100.00;101215.06;4994011;28;20041;-84
2021/10/14 11:06:35;;;;;;;4.18;2.85;;;;;;;12.81;100.00;101216.03;5004025;28;20152;-82
2021/10/14 11:09:14;;;;;;;6.72;2.90;;;;;;;12.66;100.00;101211.69;4990978;28;20046;-82
2021/10/14 11:11:41;;;;;;;3.30;2.72;;;;;;;12.57;100.00;101205.13;4990159;28;20446;-81
2021/10/14 11:14:10;;;;;;;2.60;2.30;;;;;;;12.68;100.00;101201.84;5004782;28;20049;-85
2021/10/14 11:16:38;;;;;;;3.65;2.40;;;;;;;12.73;100.00;101202.44;4994258;28;20029;-79
2021/10/14 11:19:06;;;;;;;3.20;2.50;;;;;;;12.72;100.00;101199.91;5007985;28;20152;-87
2021/10/14 11:21:37;;;;;;;6.15;2.63;;;;;;;12.60;100.00;101199.66;5013881;28;20072;-78
2021/10/14 11:24:05;;;;;;;3.90;2.25;;;;;;;12.63;100.00;101204.75;4999920;28;20527;-86
2021/10/14 11:26:43;;;;;;;4.05;3.03;;;;;;;12.11;100.00;101201.59;5010864;28;20045;-82